sensor_id;sensor_type;location;lat;lon;timestamp;pressure;altitude;pressure_sealevel;temperature;humidity
12963;BME280;6546;49.882;8.666;2023-05-20T00:00:09;100362.41;;;14.27;52.89
12963;BME280;6546;49.882;8.666;2023-05-20T00:02:35;100355.31;;;14.21;52.91
12963;BME280;6546;49.882;8.666;2023-05-20T00:05:02;100366.63;;;14.28;53.30
12963;BME280;6546;49.882;8.666;2023-05-20T00:07:29;100349.09;;;14.07;53.63
12963;BME280;6546;49.882;8.666;2023-05-20T00:09:55;100356.28;;;14.05;53.95
12963;BME280;6546;49.882;8.666;2023-05-20T00:12:23;100358.44;;;14.02;54.00
12963;BME280;6546;49.882;8.666;2023-05-20T00:14:50;100359.59;;;13.99;53.95
12963;BME280;6546;49.882;8.666;2023-05-20T00:17:16;100357.44;;;14.03;54.03
12963;BME280;6546;49.882;8.666;2023-05-20T00:19:43;100337.50;;;13.95;54.19
12963;BME280;6546;49.882;8.666;2023-05-20T00:22:09;100351.78;;;13.99;54.12
12963;BME280;6546;49.882;8.666;2023-05-20T00:24:36;100357.69;;;13.93;54.70
12963;BME280;6546;49.882;8.666;2023-05-20T00:27:03;100353.38;;;13.86;55.00
12963;BME280;6546;49.882;8.666;2023-05-20T00:29:32;100354.56;;;13.98;54.74
12963;BME280;6546;49.882;8.666;2023-05-20T00:31:59;100357.16;;;13.98;54.86
12963;BME280;6546;49.882;8.666;2023-05-20T00:34:25;100348.09;;;13.94;55.14
12963;BME280;6546;49.882;8.666;2023-05-20T00:36:52;100352.94;;;13.97;54.93
12963;BME280;6546;49.882;8.666;2023-05-20T00:39:18;100347.72;;;13.97;54.83
12963;BME280;6546;49.882;8.666;2023-05-20T00:41:45;100348.72;;;13.96;54.78
12963;BME280;6546;49.882;8.666;2023-05-20T00:44:11;100345.31;;;13.95;55.28
12963;BME280;6546;49.882;8.666;2023-05-20T00:46:39;100347.56;;;13.98;55.17
12963;BME280;6546;49.882;8.666;2023-05-20T00:49:06;100345.69;;;13.92;55.51
12963;BME280;6546;49.882;8.666;2023-05-20T00:51:33;100345.84;;;13.91;55.61
12963;BME280;6546;49.882;8.666;2023-05-20T00:54:00;100342.78;;;13.87;55.75
12963;BME280;6546;49.882;8.666;2023-05-20T00:56:27;100346.34;;;13.86;55.88
12963;BME280;6546;49.882;8.666;2023-05-20T00:58:54;100344.47;;;13.80;55.92
12963;BME280;6546;49.882;8.666;2023-05-20T01:01:21;100348.84;;;13.80;56.33
12963;BME280;6546;49.882;8.666;2023-05-20T01:03:50;100349.84;;;13.79;56.28
12963;BME280;6546;49.882;8.666;2023-05-20T01:06:17;100349.28;;;13.68;56.94
12963;BME280;6546;49.882;8.666;2023-05-20T01:08:43;100336.53;;;13.74;56.37
12963;BME280;6546;49.882;8.666;2023-05-20T01:11:15;100332.00;;;13.76;56.51
12963;BME280;6546;49.882;8.666;2023-05-20T01:13:46;100335.19;;;13.63;57.40
12963;BME280;6546;49.882;8.666;2023-05-20T01:16:17;100331.19;;;13.52;57.44
12963;BME280;6546;49.882;8.666;2023-05-20T01:18:44;100335.66;;;13.66;57.26
12963;BME280;6546;49.882;8.666;2023-05-20T01:21:14;100327.53;;;13.61;57.48
12963;BME280;6546;49.882;8.666;2023-05-20T01:23:44;100325.13;;;13.60;57.61
12963;BME280;6546;49.882;8.666;2023-05-20T01:26:10;100323.88;;;13.56;57.97
12963;BME280;6546;49.882;8.666;2023-05-20T01:28:38;100321.41;;;13.54;57.52
12963;BME280;6546;49.882;8.666;2023-05-20T01:31:11;100316.09;;;13.48;58.30
12963;BME280;6546;49.882;8.666;2023-05-20T01:33:40;100325.81;;;13.54;58.17
12963;BME280;6546;49.882;8.666;2023-05-20T01:36:07;100317.09;;;13.47;58.59
12963;BME280;6546;49.882;8.666;2023-05-20T01:38:35;100322.81;;;13.42;58.72
12963;BME280;6546;49.882;8.666;2023-05-20T01:41:05;100315.63;;;13.44;58.72
12963;BME280;6546;49.882;8.666;2023-05-20T01:43:32;100321.16;;;13.49;58.58
12963;BME280;6546;49.882;8.666;2023-05-20T01:45:59;100313.69;;;13.46;58.90
12963;BME280;6546;49.882;8.666;2023-05-20T01:48:27;100316.19;;;13.40;58.82
12963;BME280;6546;49.882;8.666;2023-05-20T01:50:53;100291.03;;;13.32;59.09
12963;BME280;6546;49.882;8.666;2023-05-20T01:53:20;100309.94;;;13.49;59.01
12963;BME280;6546;49.882;8.666;2023-05-20T01:55:46;100301.19;;;13.42;59.27
12963;BME280;6546;49.882;8.666;2023-05-20T01:58:14;100296.91;;;13.49;59.21
12963;BME280;6546;49.882;8.666;2023-05-20T02:00:41;100298.94;;;13.39;59.48
12963;BME280;6546;49.882;8.666;2023-05-20T02:03:07;100299.13;;;13.37;59.67
12963;BME280;6546;49.882;8.666;2023-05-20T02:05:34;100295.72;;;13.37;59.96
12963;BME280;6546;49.882;8.666;2023-05-20T02:08:00;100282.59;;;13.30;59.94
12963;BME280;6546;49.882;8.666;2023-05-20T02:10:29;100295.06;;;13.35;60.20
12963;BME280;6546;49.882;8.666;2023-05-20T02:12:56;100292.66;;;13.33;60.26
12963;BME280;6546;49.882;8.666;2023-05-20T02:15:24;100295.53;;;13.38;60.18
12963;BME280;6546;49.882;8.666;2023-05-20T02:17:51;100296.81;;;13.42;59.99
12963;BME280;6546;49.882;8.666;2023-05-20T02:20:17;100289.97;;;13.41;60.43
12963;BME280;6546;49.882;8.666;2023-05-20T02:22:44;100294.03;;;13.44;60.12
12963;BME280;6546;49.882;8.666;2023-05-20T02:25:11;100287.09;;;13.36;60.45
12963;BME280;6546;49.882;8.666;2023-05-20T02:27:37;100291.97;;;13.39;60.69
12963;BME280;6546;49.882;8.666;2023-05-20T02:30:06;100289.97;;;13.41;60.59
12963;BME280;6546;49.882;8.666;2023-05-20T02:32:34;100292.91;;;13.24;61.41
12963;BME280;6546;49.882;8.666;2023-05-20T02:35:01;100288.16;;;13.27;61.22
12963;BME280;6546;49.882;8.666;2023-05-20T02:37:27;100291.38;;;13.29;61.37
12963;BME280;6546;49.882;8.666;2023-05-20T02:39:54;100297.63;;;13.20;61.73
12963;BME280;6546;49.882;8.666;2023-05-20T02:42:20;100295.19;;;13.19;61.58
12963;BME280;6546;49.882;8.666;2023-05-20T02:44:47;100293.75;;;13.16;61.89
12963;BME280;6546;49.882;8.666;2023-05-20T02:47:13;100285.94;;;13.16;62.06
12963;BME280;6546;49.882;8.666;2023-05-20T02:49:41;100296.94;;;13.26;61.67
12963;BME280;6546;49.882;8.666;2023-05-20T02:52:08;100289.47;;;13.23;61.75
12963;BME280;6546;49.882;8.666;2023-05-20T02:54:34;100284.00;;;13.18;62.01
12963;BME280;6546;49.882;8.666;2023-05-20T02:57:01;100269.72;;;13.06;62.50
12963;BME280;6546;49.882;8.666;2023-05-20T02:59:27;100282.88;;;13.12;62.37
12963;BME280;6546;49.882;8.666;2023-05-20T03:01:54;100277.06;;;13.10;62.88
12963;BME280;6546;49.882;8.666;2023-05-20T03:04:20;100275.59;;;13.08;62.69
12963;BME280;6546;49.882;8.666;2023-05-20T03:06:51;100285.94;;;13.16;62.58
12963;BME280;6546;49.882;8.666;2023-05-20T03:09:18;100277.41;;;12.99;63.21
12963;BME280;6546;49.882;8.666;2023-05-20T03:11:44;100271.41;;;12.99;63.34
12963;BME280;6546;49.882;8.666;2023-05-20T03:14:11;100267.56;;;12.95;63.58
12963;BME280;6546;49.882;8.666;2023-05-20T03:16:38;100267.56;;;12.95;63.68
12963;BME280;6546;49.882;8.666;2023-05-20T03:19:05;100262.97;;;12.97;63.53
12963;BME280;6546;49.882;8.666;2023-05-20T03:21:32;100267.22;;;12.98;63.55
12963;BME280;6546;49.882;8.666;2023-05-20T03:23:59;100268.81;;;12.99;63.58
12963;BME280;6546;49.882;8.666;2023-05-20T03:26:26;100272.41;;;12.98;63.69
12963;BME280;6546;49.882;8.666;2023-05-20T03:28:52;100268.06;;;12.90;64.07
12963;BME280;6546;49.882;8.666;2023-05-20T03:31:19;100266.44;;;12.89;64.32
12963;BME280;6546;49.882;8.666;2023-05-20T03:33:46;100269.63;;;12.99;63.77
12963;BME280;6546;49.882;8.666;2023-05-20T03:36:12;100269.91;;;13.04;63.95
12963;BME280;6546;49.882;8.666;2023-05-20T03:38:39;100257.84;;;12.89;64.14
12963;BME280;6546;49.882;8.666;2023-05-20T03:41:06;100275.13;;;13.04;63.97
12963;BME280;6546;49.882;8.666;2023-05-20T03:43:33;100266.75;;;12.94;64.39
12963;BME280;6546;49.882;8.666;2023-05-20T03:45:59;100266.38;;;12.97;64.30
12963;BME280;6546;49.882;8.666;2023-05-20T03:48:26;100269.16;;;12.96;64.39
12963;BME280;6546;49.882;8.666;2023-05-20T03:50:53;100268.03;;;12.98;64.50
12963;BME280;6546;49.882;8.666;2023-05-20T03:53:19;100265.09;;;12.93;64.65
12963;BME280;6546;49.882;8.666;2023-05-20T03:55:46;100249.50;;;12.93;64.25
12963;BME280;6546;49.882;8.666;2023-05-20T03:58:14;100265.19;;;13.08;64.49
12963;BME280;6546;49.882;8.666;2023-05-20T04:00:40;100268.28;;;13.11;64.17
12963;BME280;6546;49.882;8.666;2023-05-20T04:03:07;100262.41;;;13.18;64.10
12963;BME280;6546;49.882;8.666;2023-05-20T04:05:34;100268.84;;;13.22;64.00
12963;BME280;6546;49.882;8.666;2023-05-20T04:08:01;100270.94;;;13.26;63.98
12963;BME280;6546;49.882;8.666;2023-05-20T04:10:29;100277.28;;;13.24;64.17
12963;BME280;6546;49.882;8.666;2023-05-20T04:12:56;100274.03;;;13.22;64.25
12963;BME280;6546;49.882;8.666;2023-05-20T04:15:24;100284.63;;;13.20;64.32
12963;BME280;6546;49.882;8.666;2023-05-20T04:17:54;100274.03;;;13.22;64.46
12963;BME280;6546;49.882;8.666;2023-05-20T04:20:20;100280.16;;;13.29;64.14
12963;BME280;6546;49.882;8.666;2023-05-20T04:22:47;100272.56;;;13.27;64.44
12963;BME280;6546;49.882;8.666;2023-05-20T04:25:13;100270.00;;;13.42;63.86
12963;BME280;6546;49.882;8.666;2023-05-20T04:27:39;100276.50;;;13.38;64.25
12963;BME280;6546;49.882;8.666;2023-05-20T04:30:06;100273.13;;;13.37;64.29
12963;BME280;6546;49.882;8.666;2023-05-20T04:32:36;100268.19;;;13.42;64.36
12963;BME280;6546;49.882;8.666;2023-05-20T04:35:03;100269.19;;;13.41;64.47
12963;BME280;6546;49.882;8.666;2023-05-20T04:37:32;100268.16;;;13.50;64.30
12963;BME280;6546;49.882;8.666;2023-05-20T04:39:59;100256.47;;;13.46;64.23
12963;BME280;6546;49.882;8.666;2023-05-20T04:42:27;100264.19;;;13.54;64.31
12963;BME280;6546;49.882;8.666;2023-05-20T04:44:54;100263.84;;;13.57;64.27
12963;BME280;6546;49.882;8.666;2023-05-20T04:47:22;100258.72;;;13.64;64.09
12963;BME280;6546;49.882;8.666;2023-05-20T04:49:50;100271.84;;;13.71;63.76
12963;BME280;6546;49.882;8.666;2023-05-20T04:52:17;100255.97;;;13.80;63.54
12963;BME280;6546;49.882;8.666;2023-05-20T04:54:44;100257.44;;;13.83;63.70
12963;BME280;6546;49.882;8.666;2023-05-20T04:57:10;100247.84;;;13.98;63.15
12963;BME280;6546;49.882;8.666;2023-05-20T04:59:37;100247.81;;;14.12;62.54
12963;BME280;6546;49.882;8.666;2023-05-20T05:02:03;100246.19;;;14.26;62.13
12963;BME280;6546;49.882;8.666;2023-05-20T05:04:30;100230.31;;;14.21;62.16
12963;BME280;6546;49.882;8.666;2023-05-20T05:06:58;100237.84;;;14.31;62.40
12963;BME280;6546;49.882;8.666;2023-05-20T05:09:24;100244.97;;;14.37;61.95
12963;BME280;6546;49.882;8.666;2023-05-20T05:11:51;100232.56;;;14.39;61.97
12963;BME280;6546;49.882;8.666;2023-05-20T05:14:17;100236.50;;;14.35;61.88
12963;BME280;6546;49.882;8.666;2023-05-20T05:16:44;100238.13;;;14.36;62.15
12963;BME280;6546;49.882;8.666;2023-05-20T05:19:10;100241.78;;;14.41;62.11
12963;BME280;6546;49.882;8.666;2023-05-20T05:21:37;100240.19;;;14.40;62.28
12963;BME280;6546;49.882;8.666;2023-05-20T05:24:06;100232.31;;;14.34;62.34
12963;BME280;6546;49.882;8.666;2023-05-20T05:26:32;100229.59;;;14.42;62.37
12963;BME280;6546;49.882;8.666;2023-05-20T05:28:59;100235.00;;;14.40;62.26
12963;BME280;6546;49.882;8.666;2023-05-20T05:31:25;100220.50;;;14.52;61.89
12963;BME280;6546;49.882;8.666;2023-05-20T05:33:52;100239.94;;;14.71;61.35
12963;BME280;6546;49.882;8.666;2023-05-20T05:36:18;100238.28;;;14.85;60.85
12963;BME280;6546;49.882;8.666;2023-05-20T05:38:45;100219.41;;;14.83;61.02
12963;BME280;6546;49.882;8.666;2023-05-20T05:41:13;100229.72;;;15.12;60.47
12963;BME280;6546;49.882;8.666;2023-05-20T05:43:39;100224.56;;;15.18;59.96
12963;BME280;6546;49.882;8.666;2023-05-20T05:46:06;100229.72;;;15.12;60.25
12963;BME280;6546;49.882;8.666;2023-05-20T05:48:34;100230.16;;;14.94;60.72
12963;BME280;6546;49.882;8.666;2023-05-20T05:51:01;100229.94;;;14.75;61.82
12963;BME280;6546;49.882;8.666;2023-05-20T05:53:28;100234.63;;;14.79;61.48
12963;BME280;6546;49.882;8.666;2023-05-20T05:55:54;100217.53;;;14.77;61.88
12963;BME280;6546;49.882;8.666;2023-05-20T05:58:22;100217.50;;;14.91;61.81
12963;BME280;6546;49.882;8.666;2023-05-20T06:00:50;100234.19;;;14.97;61.15
12963;BME280;6546;49.882;8.666;2023-05-20T06:03:17;100221.63;;;15.07;61.11
12963;BME280;6546;49.882;8.666;2023-05-20T06:05:44;100223.63;;;15.05;60.87
12963;BME280;6546;49.882;8.666;2023-05-20T06:08:11;100224.00;;;15.02;61.51
12963;BME280;6546;49.882;8.666;2023-05-20T06:10:37;100225.28;;;15.12;60.91
12963;BME280;6546;49.882;8.666;2023-05-20T06:13:04;100215.94;;;14.97;61.52
12963;BME280;6546;49.882;8.666;2023-05-20T06:15:32;100213.22;;;15.05;61.41
12963;BME280;6546;49.882;8.666;2023-05-20T06:17:58;100222.88;;;15.11;61.22
12963;BME280;6546;49.882;8.666;2023-05-20T06:20:25;100220.16;;;14.98;61.57
12963;BME280;6546;49.882;8.666;2023-05-20T06:22:51;100223.88;;;14.89;62.20
12963;BME280;6546;49.882;8.666;2023-05-20T06:25:18;100213.59;;;15.02;62.05
12963;BME280;6546;49.882;8.666;2023-05-20T06:27:45;100226.28;;;14.90;61.96
12963;BME280;6546;49.882;8.666;2023-05-20T06:30:11;100230.75;;;14.75;62.54
12963;BME280;6546;49.882;8.666;2023-05-20T06:32:39;100216.19;;;14.81;62.63
12963;BME280;6546;49.882;8.666;2023-05-20T06:35:06;100217.28;;;14.93;62.41
12963;BME280;6546;49.882;8.666;2023-05-20T06:37:33;100212.84;;;15.08;62.12
12963;BME280;6546;49.882;8.666;2023-05-20T06:40:00;100223.25;;;15.08;62.06
12963;BME280;6546;49.882;8.666;2023-05-20T06:42:26;100218.16;;;15.00;62.06
12963;BME280;6546;49.882;8.666;2023-05-20T06:44:53;100210.78;;;15.03;61.80
12963;BME280;6546;49.882;8.666;2023-05-20T06:47:19;100206.31;;;14.97;62.19
12963;BME280;6546;49.882;8.666;2023-05-20T06:49:47;100188.59;;;14.93;62.54
12963;BME280;6546;49.882;8.666;2023-05-20T06:52:14;100193.78;;;14.86;63.00
12963;BME280;6546;49.882;8.666;2023-05-20T06:54:42;100200.66;;;14.94;62.81
12963;BME280;6546;49.882;8.666;2023-05-20T06:57:08;100202.59;;;14.85;63.03
12963;BME280;6546;49.882;8.666;2023-05-20T06:59:35;100202.16;;;14.82;63.03
12963;BME280;6546;49.882;8.666;2023-05-20T07:02:02;100215.06;;;14.90;63.37
12963;BME280;6546;49.882;8.666;2023-05-20T07:04:29;100210.59;;;14.84;62.94
12963;BME280;6546;49.882;8.666;2023-05-20T07:06:56;100213.97;;;14.99;63.08
12963;BME280;6546;49.882;8.666;2023-05-20T07:09:23;100210.47;;;15.13;62.29
12963;BME280;6546;49.882;8.666;2023-05-20T07:11:50;100203.28;;;15.15;62.35
12963;BME280;6546;49.882;8.666;2023-05-20T07:14:32;100206.09;;;15.20;62.65
12963;BME280;6546;49.882;8.666;2023-05-20T07:16:59;100196.66;;;15.19;62.53
12963;BME280;6546;49.882;8.666;2023-05-20T07:19:25;100201.75;;;15.27;61.99
12963;BME280;6546;49.882;8.666;2023-05-20T07:21:52;100208.16;;;15.24;61.94
12963;BME280;6546;49.882;8.666;2023-05-20T07:24:18;100193.00;;;15.35;61.85
12963;BME280;6546;49.882;8.666;2023-05-20T07:26:45;100198.44;;;15.67;61.10
12963;BME280;6546;49.882;8.666;2023-05-20T07:29:11;100185.88;;;15.84;60.58
12963;BME280;6546;49.882;8.666;2023-05-20T07:31:39;100183.97;;;16.06;59.71
12963;BME280;6546;49.882;8.666;2023-05-20T07:34:06;100178.06;;;16.25;59.21
12963;BME280;6546;49.882;8.666;2023-05-20T07:36:32;100174.72;;;16.51;58.60
12963;BME280;6546;49.882;8.666;2023-05-20T07:38:59;100182.44;;;16.92;57.55
12963;BME280;6546;49.882;8.666;2023-05-20T07:41:25;100181.03;;;17.09;56.86
12963;BME280;6546;49.882;8.666;2023-05-20T07:43:54;100184.25;;;17.11;56.34
12963;BME280;6546;49.882;8.666;2023-05-20T07:46:21;100184.44;;;17.42;55.81
12963;BME280;6546;49.882;8.666;2023-05-20T07:48:49;100182.03;;;17.01;56.14
12963;BME280;6546;49.882;8.666;2023-05-20T07:51:15;100174.78;;;17.03;56.51
12963;BME280;6546;49.882;8.666;2023-05-20T07:53:43;100169.56;;;17.03;56.86
12963;BME280;6546;49.882;8.666;2023-05-20T07:56:09;100165.94;;;17.24;55.86
12963;BME280;6546;49.882;8.666;2023-05-20T07:58:36;100165.94;;;17.30;56.54
12963;BME280;6546;49.882;8.666;2023-05-20T08:01:02;100163.91;;;17.26;56.43
12963;BME280;6546;49.882;8.666;2023-05-20T08:03:29;100164.72;;;17.33;55.78
12963;BME280;6546;49.882;8.666;2023-05-20T08:05:57;100171.97;;;17.31;55.94
12963;BME280;6546;49.882;8.666;2023-05-20T08:08:23;100167.97;;;17.15;55.98
12963;BME280;6546;49.882;8.666;2023-05-20T08:10:51;100165.31;;;17.35;56.35
12963;BME280;6546;49.882;8.666;2023-05-20T08:13:17;100164.94;;;17.38;56.20
12963;BME280;6546;49.882;8.666;2023-05-20T08:15:44;100157.38;;;17.88;54.89
12963;BME280;6546;49.882;8.666;2023-05-20T08:18:12;100150.31;;;18.32;55.10
12963;BME280;6546;49.882;8.666;2023-05-20T08:20:39;100153.16;;;18.94;53.31
12963;BME280;6546;49.882;8.666;2023-05-20T08:23:07;100170.75;;;19.36;50.74
12963;BME280;6546;49.882;8.666;2023-05-20T08:25:34;100156.78;;;19.42;50.31
12963;BME280;6546;49.882;8.666;2023-05-20T08:28:01;100157.16;;;19.46;50.29
12963;BME280;6546;49.882;8.666;2023-05-20T08:30:29;100164.78;;;19.04;51.31
12963;BME280;6546;49.882;8.666;2023-05-20T08:32:56;100155.28;;;18.78;52.28
12963;BME280;6546;49.882;8.666;2023-05-20T08:35:22;100150.09;;;18.72;52.46
12963;BME280;6546;49.882;8.666;2023-05-20T08:37:49;100148.38;;;18.59;53.06
12963;BME280;6546;49.882;8.666;2023-05-20T08:40:20;100157.00;;;18.66;53.27
12963;BME280;6546;49.882;8.666;2023-05-20T08:42:47;100156.25;;;18.59;52.76
12963;BME280;6546;49.882;8.666;2023-05-20T08:45:16;100156.56;;;18.69;52.80
12963;BME280;6546;49.882;8.666;2023-05-20T08:47:43;100147.75;;;18.88;52.32
12963;BME280;6546;49.882;8.666;2023-05-20T08:50:11;100156.91;;;18.79;52.46
12963;BME280;6546;49.882;8.666;2023-05-20T08:52:42;100149.66;;;18.75;52.73
12963;BME280;6546;49.882;8.666;2023-05-20T08:55:13;100149.63;;;18.81;52.84
12963;BME280;6546;49.882;8.666;2023-05-20T08:57:41;100159.88;;;18.90;52.30
12963;BME280;6546;49.882;8.666;2023-05-20T09:00:12;100156.59;;;18.94;52.62
12963;BME280;6546;49.882;8.666;2023-05-20T09:02:41;100158.94;;;18.77;52.78
12963;BME280;6546;49.882;8.666;2023-05-20T09:05:09;100156.47;;;18.82;52.90
12963;BME280;6546;49.882;8.666;2023-05-20T09:07:36;100155.38;;;18.65;53.51
12963;BME280;6546;49.882;8.666;2023-05-20T09:10:04;100151.63;;;18.86;53.52
12963;BME280;6546;49.882;8.666;2023-05-20T09:12:30;100144.31;;;19.13;52.96
12963;BME280;6546;49.882;8.666;2023-05-20T09:14:58;100146.88;;;19.62;51.87
12963;BME280;6546;49.882;8.666;2023-05-20T09:17:25;100137.53;;;20.03;50.44
12963;BME280;6546;49.882;8.666;2023-05-20T09:19:52;100134.28;;;20.19;49.31
12963;BME280;6546;49.882;8.666;2023-05-20T09:22:22;100134.91;;;20.62;48.96
12963;BME280;6546;49.882;8.666;2023-05-20T09:24:49;100132.22;;;20.80;48.36
12963;BME280;6546;49.882;8.666;2023-05-20T09:27:16;100127.53;;;20.41;48.37
12963;BME280;6546;49.882;8.666;2023-05-20T09:29:43;100133.78;;;19.80;49.78
12963;BME280;6546;49.882;8.666;2023-05-20T09:32:10;100132.88;;;19.50;50.98
12963;BME280;6546;49.882;8.666;2023-05-20T09:34:38;100133.91;;;19.67;51.40
12963;BME280;6546;49.882;8.666;2023-05-20T09:37:06;100132.13;;;19.61;50.03
12963;BME280;6546;49.882;8.666;2023-05-20T09:39:40;100128.59;;;19.74;49.64
12963;BME280;6546;49.882;8.666;2023-05-20T09:42:16;100126.06;;;19.97;49.58
12963;BME280;6546;49.882;8.666;2023-05-20T09:44:43;100130.50;;;20.15;49.86
12963;BME280;6546;49.882;8.666;2023-05-20T09:47:12;100137.59;;;20.44;48.97
12963;BME280;6546;49.882;8.666;2023-05-20T09:49:39;100118.34;;;20.73;48.26
12963;BME280;6546;49.882;8.666;2023-05-20T09:52:07;100125.31;;;20.91;47.64
12963;BME280;6546;49.882;8.666;2023-05-20T09:54:35;100129.34;;;20.40;48.07
12963;BME280;6546;49.882;8.666;2023-05-20T09:57:02;100125.81;;;20.35;48.61
12963;BME280;6546;49.882;8.666;2023-05-20T09:59:30;100122.97;;;20.48;48.32
12963;BME280;6546;49.882;8.666;2023-05-20T10:01:57;100127.16;;;20.67;48.55
12963;BME280;6546;49.882;8.666;2023-05-20T10:04:26;100118.69;;;20.88;47.17
12963;BME280;6546;49.882;8.666;2023-05-20T10:07:19;100116.88;;;20.77;47.47
12963;BME280;6546;49.882;8.666;2023-05-20T10:10:06;100131.50;;;20.73;47.03
12963;BME280;6546;49.882;8.666;2023-05-20T10:12:44;100122.81;;;20.73;47.22
12963;BME280;6546;49.882;8.666;2023-05-20T10:15:17;100121.28;;;20.54;47.03
12963;BME280;6546;49.882;8.666;2023-05-20T10:17:52;100116.69;;;20.49;47.25
12963;BME280;6546;49.882;8.666;2023-05-20T10:20:25;100111.88;;;20.46;46.94
12963;BME280;6546;49.882;8.666;2023-05-20T10:22:55;100103.56;;;20.61;47.43
12963;BME280;6546;49.882;8.666;2023-05-20T10:25:24;100090.56;;;20.77;46.41
12963;BME280;6546;49.882;8.666;2023-05-20T10:27:51;100098.75;;;20.81;47.33
12963;BME280;6546;49.882;8.666;2023-05-20T10:30:19;100097.59;;;20.65;47.22
12963;BME280;6546;49.882;8.666;2023-05-20T10:32:52;100096.69;;;20.60;47.69
12963;BME280;6546;49.882;8.666;2023-05-20T10:35:21;100096.22;;;20.51;47.45
12963;BME280;6546;49.882;8.666;2023-05-20T10:37:53;100098.25;;;20.49;47.03
12963;BME280;6546;49.882;8.666;2023-05-20T10:40:20;100076.41;;;20.37;47.49
12963;BME280;6546;49.882;8.666;2023-05-20T10:42:47;100077.56;;;20.53;47.61
12963;BME280;6546;49.882;8.666;2023-05-20T10:45:25;100084.81;;;20.69;46.85
12963;BME280;6546;49.882;8.666;2023-05-20T10:47:55;100084.44;;;20.54;47.56
12963;BME280;6546;49.882;8.666;2023-05-20T10:50:26;100079.75;;;20.26;47.09
12963;BME280;6546;49.882;8.666;2023-05-20T10:53:01;100075.41;;;20.20;48.20
12963;BME280;6546;49.882;8.666;2023-05-20T10:55:34;100084.78;;;20.16;48.01
12963;BME280;6546;49.882;8.666;2023-05-20T10:58:02;100078.97;;;19.96;49.04
12963;BME280;6546;49.882;8.666;2023-05-20T11:00:29;100083.53;;;19.88;49.18
12963;BME280;6546;49.882;8.666;2023-05-20T11:02:56;100076.94;;;19.98;48.75
12963;BME280;6546;49.882;8.666;2023-05-20T11:05:22;100087.88;;;20.24;48.16
12963;BME280;6546;49.882;8.666;2023-05-20T11:07:49;100093.72;;;20.56;47.77
12963;BME280;6546;49.882;8.666;2023-05-20T11:10:20;100080.59;;;20.79;46.50
12963;BME280;6546;49.882;8.666;2023-05-20T11:12:48;100071.66;;;20.69;47.00
12963;BME280;6546;49.882;8.666;2023-05-20T11:15:14;100075.31;;;20.79;46.63
12963;BME280;6546;49.882;8.666;2023-05-20T11:17:51;100069.81;;;20.81;47.31
12963;BME280;6546;49.882;8.666;2023-05-20T11:20:18;100063.88;;;20.85;46.50
12963;BME280;6546;49.882;8.666;2023-05-20T11:22:45;100068.16;;;21.10;46.40
12963;BME280;6546;49.882;8.666;2023-05-20T11:25:11;100059.28;;;21.04;45.64
12963;BME280;6546;49.882;8.666;2023-05-20T11:27:39;100053.56;;;20.95;45.76
12963;BME280;6546;49.882;8.666;2023-05-20T11:30:07;100053.81;;;20.82;46.00
12963;BME280;6546;49.882;8.666;2023-05-20T11:32:34;100056.53;;;20.87;46.16
12963;BME280;6546;49.882;8.666;2023-05-20T11:35:00;100059.88;;;20.94;45.84
12963;BME280;6546;49.882;8.666;2023-05-20T11:37:29;100059.53;;;20.79;45.65
12963;BME280;6546;49.882;8.666;2023-05-20T11:40:03;100056.53;;;20.87;45.89
12963;BME280;6546;49.882;8.666;2023-05-20T11:42:34;100058.50;;;20.69;46.18
12963;BME280;6546;49.882;8.666;2023-05-20T11:45:02;100045.34;;;20.69;46.45
12963;BME280;6546;49.882;8.666;2023-05-20T11:47:28;100045.81;;;20.77;46.26
12963;BME280;6546;49.882;8.666;2023-05-20T11:49:56;100037.31;;;20.75;47.14
12963;BME280;6546;49.882;8.666;2023-05-20T11:52:23;100041.09;;;20.79;45.92
12963;BME280;6546;49.882;8.666;2023-05-20T11:54:51;100042.47;;;20.59;46.78
12963;BME280;6546;49.882;8.666;2023-05-20T11:57:18;100037.97;;;20.36;47.41
12963;BME280;6546;49.882;8.666;2023-05-20T11:59:45;100043.31;;;20.29;47.47
12963;BME280;6546;49.882;8.666;2023-05-20T12:02:13;100044.03;;;20.07;47.84
12963;BME280;6546;49.882;8.666;2023-05-20T12:04:40;100032.84;;;20.00;48.18
12963;BME280;6546;49.882;8.666;2023-05-20T12:07:07;100016.63;;;20.03;47.60
12963;BME280;6546;49.882;8.666;2023-05-20T12:09:34;100034.22;;;20.14;47.97
12963;BME280;6546;49.882;8.666;2023-05-20T12:12:01;100037.66;;;20.03;48.27
12963;BME280;6546;49.882;8.666;2023-05-20T12:14:27;100030.31;;;20.05;47.99
12963;BME280;6546;49.882;8.666;2023-05-20T12:16:54;100029.63;;;20.27;47.93
12963;BME280;6546;49.882;8.666;2023-05-20T12:19:22;100023.00;;;20.36;47.29
12963;BME280;6546;49.882;8.666;2023-05-20T12:21:49;100015.81;;;20.32;47.23
12963;BME280;6546;49.882;8.666;2023-05-20T12:24:17;100037.88;;;20.42;47.44
12963;BME280;6546;49.882;8.666;2023-05-20T12:26:43;100024.72;;;20.42;47.82
12963;BME280;6546;49.882;8.666;2023-05-20T12:29:10;100025.53;;;20.43;47.67
12963;BME280;6546;49.882;8.666;2023-05-20T12:31:37;100022.44;;;20.46;47.80
12963;BME280;6546;49.882;8.666;2023-05-20T12:34:04;100006.31;;;20.42;47.35
12963;BME280;6546;49.882;8.666;2023-05-20T12:36:32;99988.69;;;20.43;47.50
12963;BME280;6546;49.882;8.666;2023-05-20T12:38:59;100008.28;;;20.70;47.40
12963;BME280;6546;49.882;8.666;2023-05-20T12:41:26;100012.03;;;20.86;46.60
12963;BME280;6546;49.882;8.666;2023-05-20T12:43:52;100007.94;;;20.67;46.28
12963;BME280;6546;49.882;8.666;2023-05-20T12:46:19;100002.56;;;20.73;46.52
12963;BME280;6546;49.882;8.666;2023-05-20T12:48:47;100003.69;;;20.77;47.29
12963;BME280;6546;49.882;8.666;2023-05-20T12:51:13;99994.66;;;20.50;47.71
12963;BME280;6546;49.882;8.666;2023-05-20T12:53:41;100004.94;;;20.28;48.59
12963;BME280;6546;49.882;8.666;2023-05-20T12:56:08;100011.38;;;20.26;49.39
12963;BME280;6546;49.882;8.666;2023-05-20T12:58:34;100010.34;;;20.15;49.55
12963;BME280;6546;49.882;8.666;2023-05-20T13:01:01;100011.84;;;20.23;49.92